sensor_id;sensor_type;location;lat;lon;timestamp;temperature;humidity
53294;DHT22;39181;53.440;5.644;2022-10-31T00:02:21;12.90;99.90
53294;DHT22;39181;53.440;5.644;2022-10-31T00:04:46;12.90;99.90
53294;DHT22;39181;53.440;5.644;2022-10-31T00:07:12;12.90;99.90
53294;DHT22;39181;53.440;5.644;2022-10-31T00:09:38;12.90;99.90
53294;DHT22;39181;53.440;5.644;2022-10-31T00:12:03;12.90;99.90
53294;DHT22;39181;53.440;5.644;2022-10-31T00:14:29;12.90;99.90
53294;DHT22;39181;53.440;5.644;2022-10-31T00:16:54;12.90;99.90
53294;DHT22;39181;53.440;5.644;2022-10-31T00:19:20;12.90;99.90
53294;DHT22;39181;53.440;5.644;2022-10-31T00:21:45;12.90;99.90
53294;DHT22;39181;53.440;5.644;2022-10-31T00:24:11;12.90;99.90
53294;DHT22;39181;53.440;5.644;2022-10-31T00:26:37;12.90;99.90
53294;DHT22;39181;53.440;5.644;2022-10-31T00:29:03;12.90;99.90
53294;DHT22;39181;53.440;5.644;2022-10-31T00:31:29;12.80;99.90
53294;DHT22;39181;53.440;5.644;2022-10-31T00:33:54;12.70;99.90
53294;DHT22;39181;53.440;5.644;2022-10-31T00:36:20;12.70;99.90
53294;DHT22;39181;53.440;5.644;2022-10-31T00:38:47;12.70;99.90
53294;DHT22;39181;53.440;5.644;2022-10-31T00:41:14;12.70;99.90
53294;DHT22;39181;53.440;5.644;2022-10-31T00:43:41;12.70;99.90
53294;DHT22;39181;53.440;5.644;2022-10-31T00:46:07;12.60;99.90
53294;DHT22;39181;53.440;5.644;2022-10-31T00:48:32;12.70;99.90
53294;DHT22;39181;53.440;5.644;2022-10-31T00:50:58;12.60;99.90
53294;DHT22;39181;53.440;5.644;2022-10-31T00:53:24;12.60;99.90
53294;DHT22;39181;53.440;5.644;2022-10-31T00:55:49;12.60;99.90
53294;DHT22;39181;53.440;5.644;2022-10-31T00:58:15;12.60;99.90
53294;DHT22;39181;53.440;5.644;2022-10-31T01:00:40;12.50;99.90
53294;DHT22;39181;53.440;5.644;2022-10-31T01:03:06;12.50;99.90
53294;DHT22;39181;53.440;5.644;2022-10-31T01:05:32;12.50;99.90
53294;DHT22;39181;53.440;5.644;2022-10-31T01:07:58;12.50;99.90
53294;DHT22;39181;53.440;5.644;2022-10-31T01:10:24;12.40;99.90
53294;DHT22;39181;53.440;5.644;2022-10-31T01:12:50;12.40;99.90
53294;DHT22;39181;53.440;5.644;2022-10-31T01:15:20;12.30;99.90
53294;DHT22;39181;53.440;5.644;2022-10-31T01:17:46;12.30;99.90
53294;DHT22;39181;53.440;5.644;2022-10-31T01:20:13;12.20;99.90
53294;DHT22;39181;53.440;5.644;2022-10-31T01:22:39;12.20;99.90
53294;DHT22;39181;53.440;5.644;2022-10-31T01:25:06;12.10;99.90
53294;DHT22;39181;53.440;5.644;2022-10-31T01:27:31;12.10;99.90
53294;DHT22;39181;53.440;5.644;2022-10-31T01:29:57;12.10;99.90
53294;DHT22;39181;53.440;5.644;2022-10-31T01:32:23;12.10;99.90
53294;DHT22;39181;53.440;5.644;2022-10-31T01:34:48;12.10;99.90
53294;DHT22;39181;53.440;5.644;2022-10-31T01:37:14;12.20;99.90
53294;DHT22;39181;53.440;5.644;2022-10-31T01:39:39;12.20;99.90
53294;DHT22;39181;53.440;5.644;2022-10-31T01:42:05;12.20;99.90
53294;DHT22;39181;53.440;5.644;2022-10-31T01:46:58;12.20;99.90
53294;DHT22;39181;53.440;5.644;2022-10-31T01:54:39;12.20;99.90
53294;DHT22;39181;53.440;5.644;2022-10-31T01:57:07;12.10;99.90
53294;DHT22;39181;53.440;5.644;2022-10-31T01:59:45;12.10;99.90
53294;DHT22;39181;53.440;5.644;2022-10-31T02:02:12;12.10;99.90
53294;DHT22;39181;53.440;5.644;2022-10-31T02:04:38;12.00;99.90
53294;DHT22;39181;53.440;5.644;2022-10-31T02:07:12;12.00;99.90
53294;DHT22;39181;53.440;5.644;2022-10-31T02:09:40;12.00;99.90
53294;DHT22;39181;53.440;5.644;2022-10-31T02:12:06;12.00;99.90
53294;DHT22;39181;53.440;5.644;2022-10-31T02:14:35;11.90;99.90
53294;DHT22;39181;53.440;5.644;2022-10-31T02:17:01;11.90;99.90
53294;DHT22;39181;53.440;5.644;2022-10-31T02:19:36;11.90;99.90
53294;DHT22;39181;53.440;5.644;2022-10-31T02:25:02;11.90;99.90
53294;DHT22;39181;53.440;5.644;2022-10-31T02:30:23;11.90;99.90
53294;DHT22;39181;53.440;5.644;2022-10-31T02:33:19;11.80;99.90
53294;DHT22;39181;53.440;5.644;2022-10-31T02:38:29;11.80;99.90
53294;DHT22;39181;53.440;5.644;2022-10-31T02:41:38;11.80;99.90
53294;DHT22;39181;53.440;5.644;2022-10-31T02:47:00;11.90;99.90
53294;DHT22;39181;53.440;5.644;2022-10-31T02:49:38;11.90;99.90
53294;DHT22;39181;53.440;5.644;2022-10-31T02:52:20;11.90;99.90
53294;DHT22;39181;53.440;5.644;2022-10-31T02:54:48;11.90;99.90
53294;DHT22;39181;53.440;5.644;2022-10-31T02:57:15;11.80;99.90
53294;DHT22;39181;53.440;5.644;2022-10-31T02:59:48;11.80;99.90
53294;DHT22;39181;53.440;5.644;2022-10-31T03:05:17;11.70;99.90
53294;DHT22;39181;53.440;5.644;2022-10-31T03:08:22;11.70;99.90
53294;DHT22;39181;53.440;5.644;2022-10-31T03:11:03;11.70;99.90
53294;DHT22;39181;53.440;5.644;2022-10-31T03:13:45;11.70;99.90
53294;DHT22;39181;53.440;5.644;2022-10-31T03:21:51;11.70;99.90
53294;DHT22;39181;53.440;5.644;2022-10-31T03:24:20;11.70;99.90
53294;DHT22;39181;53.440;5.644;2022-10-31T03:26:50;11.70;99.90
53294;DHT22;39181;53.440;5.644;2022-10-31T03:29:20;11.70;99.90
53294;DHT22;39181;53.440;5.644;2022-10-31T03:32:09;11.70;99.90
53294;DHT22;39181;53.440;5.644;2022-10-31T03:34:38;11.60;99.90
53294;DHT22;39181;53.440;5.644;2022-10-31T03:37:09;11.60;99.90
53294;DHT22;39181;53.440;5.644;2022-10-31T03:39:37;11.60;99.90
53294;DHT22;39181;53.440;5.644;2022-10-31T03:42:23;11.50;99.90
53294;DHT22;39181;53.440;5.644;2022-10-31T03:45:03;11.50;99.90
53294;DHT22;39181;53.440;5.644;2022-10-31T03:47:30;11.50;99.90
53294;DHT22;39181;53.440;5.644;2022-10-31T03:49:56;11.40;99.90
53294;DHT22;39181;53.440;5.644;2022-10-31T03:52:33;11.40;99.90
53294;DHT22;39181;53.440;5.644;2022-10-31T03:55:32;11.40;99.90
53294;DHT22;39181;53.440;5.644;2022-10-31T04:00:33;11.40;99.90
53294;DHT22;39181;53.440;5.644;2022-10-31T04:03:14;11.50;99.90
53294;DHT22;39181;53.440;5.644;2022-10-31T04:05:42;11.40;99.90
53294;DHT22;39181;53.440;5.644;2022-10-31T04:08:14;11.50;99.90
53294;DHT22;39181;53.440;5.644;2022-10-31T04:10:41;11.40;99.90
53294;DHT22;39181;53.440;5.644;2022-10-31T04:13:11;11.50;99.90
53294;DHT22;39181;53.440;5.644;2022-10-31T04:15:39;11.40;99.90
53294;DHT22;39181;53.440;5.644;2022-10-31T04:18:06;11.40;99.90
53294;DHT22;39181;53.440;5.644;2022-10-31T04:20:34;11.40;99.90
53294;DHT22;39181;53.440;5.644;2022-10-31T04:23:01;11.40;99.90
53294;DHT22;39181;53.440;5.644;2022-10-31T04:25:27;11.40;99.90
53294;DHT22;39181;53.440;5.644;2022-10-31T04:27:52;11.30;99.90
53294;DHT22;39181;53.440;5.644;2022-10-31T04:30:18;11.40;99.90
53294;DHT22;39181;53.440;5.644;2022-10-31T04:32:43;11.30;99.90
53294;DHT22;39181;53.440;5.644;2022-10-31T04:35:09;11.30;99.90
53294;DHT22;39181;53.440;5.644;2022-10-31T04:37:34;11.30;99.90
53294;DHT22;39181;53.440;5.644;2022-10-31T04:40:00;11.30;99.90
53294;DHT22;39181;53.440;5.644;2022-10-31T04:42:29;11.20;99.90
53294;DHT22;39181;53.440;5.644;2022-10-31T04:44:55;11.20;99.90
53294;DHT22;39181;53.440;5.644;2022-10-31T04:47:20;11.20;99.90
53294;DHT22;39181;53.440;5.644;2022-10-31T04:49:46;11.20;99.90
53294;DHT22;39181;53.440;5.644;2022-10-31T04:52:11;11.10;99.90
53294;DHT22;39181;53.440;5.644;2022-10-31T04:54:37;11.10;99.90
53294;DHT22;39181;53.440;5.644;2022-10-31T04:57:02;11.10;99.90
53294;DHT22;39181;53.440;5.644;2022-10-31T04:59:28;11.10;99.90
53294;DHT22;39181;53.440;5.644;2022-10-31T05:01:53;11.10;99.90
53294;DHT22;39181;53.440;5.644;2022-10-31T05:04:19;11.10;99.90
53294;DHT22;39181;53.440;5.644;2022-10-31T05:06:45;11.10;99.90
53294;DHT22;39181;53.440;5.644;2022-10-31T05:09:10;11.10;99.90
53294;DHT22;39181;53.440;5.644;2022-10-31T05:11:36;11.10;99.90
53294;DHT22;39181;53.440;5.644;2022-10-31T05:14:01;11.10;99.90
53294;DHT22;39181;53.440;5.644;2022-10-31T05:16:28;11.10;99.90
53294;DHT22;39181;53.440;5.644;2022-10-31T05:18:53;11.10;99.90
53294;DHT22;39181;53.440;5.644;2022-10-31T05:21:19;11.00;99.90
53294;DHT22;39181;53.440;5.644;2022-10-31T05:23:45;11.10;99.90
53294;DHT22;39181;53.440;5.644;2022-10-31T05:26:10;11.00;99.90
53294;DHT22;39181;53.440;5.644;2022-10-31T05:28:36;11.00;99.90
53294;DHT22;39181;53.440;5.644;2022-10-31T05:31:01;11.10;99.90
53294;DHT22;39181;53.440;5.644;2022-10-31T05:33:27;11.00;99.90
53294;DHT22;39181;53.440;5.644;2022-10-31T05:35:52;11.10;99.90
53294;DHT22;39181;53.440;5.644;2022-10-31T05:38:18;11.10;99.90
53294;DHT22;39181;53.440;5.644;2022-10-31T05:40:44;11.10;99.90
53294;DHT22;39181;53.440;5.644;2022-10-31T05:43:09;11.10;99.90
53294;DHT22;39181;53.440;5.644;2022-10-31T05:45:35;11.10;99.90
53294;DHT22;39181;53.440;5.644;2022-10-31T05:48:01;11.10;99.90
53294;DHT22;39181;53.440;5.644;2022-10-31T05:50:29;11.10;99.90
53294;DHT22;39181;53.440;5.644;2022-10-31T05:52:57;11.10;99.90
53294;DHT22;39181;53.440;5.644;2022-10-31T05:55:23;11.10;99.90
53294;DHT22;39181;53.440;5.644;2022-10-31T05:57:51;11.10;99.90
53294;DHT22;39181;53.440;5.644;2022-10-31T06:00:18;11.10;99.90
53294;DHT22;39181;53.440;5.644;2022-10-31T06:02:43;11.00;99.90
53294;DHT22;39181;53.440;5.644;2022-10-31T06:05:09;10.90;99.90
53294;DHT22;39181;53.440;5.644;2022-10-31T06:07:35;10.90;99.90
53294;DHT22;39181;53.440;5.644;2022-10-31T06:10:02;10.90;99.90
53294;DHT22;39181;53.440;5.644;2022-10-31T06:12:28;10.90;99.90
53294;DHT22;39181;53.440;5.644;2022-10-31T06:14:54;10.90;99.90
53294;DHT22;39181;53.440;5.644;2022-10-31T06:17:19;10.90;99.90
53294;DHT22;39181;53.440;5.644;2022-10-31T06:19:45;10.90;99.90
53294;DHT22;39181;53.440;5.644;2022-10-31T06:22:10;10.90;99.90
53294;DHT22;39181;53.440;5.644;2022-10-31T06:24:37;10.80;99.90
53294;DHT22;39181;53.440;5.644;2022-10-31T06:27:03;10.80;99.90
53294;DHT22;39181;53.440;5.644;2022-10-31T06:29:29;10.70;99.90
53294;DHT22;39181;53.440;5.644;2022-10-31T06:31:55;10.70;99.90
53294;DHT22;39181;53.440;5.644;2022-10-31T06:34:20;10.70;99.90
53294;DHT22;39181;53.440;5.644;2022-10-31T06:36:46;10.70;99.90
53294;DHT22;39181;53.440;5.644;2022-10-31T06:39:12;10.70;99.90
53294;DHT22;39181;53.440;5.644;2022-10-31T06:41:38;10.70;99.90
53294;DHT22;39181;53.440;5.644;2022-10-31T06:44:05;10.60;99.90
53294;DHT22;39181;53.440;5.644;2022-10-31T06:46:31;10.70;99.90
53294;DHT22;39181;53.440;5.644;2022-10-31T06:48:57;10.70;99.90
53294;DHT22;39181;53.440;5.644;2022-10-31T06:51:22;10.70;99.90
53294;DHT22;39181;53.440;5.644;2022-10-31T06:53:48;10.70;99.90
53294;DHT22;39181;53.440;5.644;2022-10-31T06:56:13;10.70;99.90
53294;DHT22;39181;53.440;5.644;2022-10-31T06:58:42;10.70;99.90
53294;DHT22;39181;53.440;5.644;2022-10-31T07:01:07;10.70;99.90
53294;DHT22;39181;53.440;5.644;2022-10-31T07:03:33;10.80;99.90
53294;DHT22;39181;53.440;5.644;2022-10-31T07:05:58;10.80;99.90
53294;DHT22;39181;53.440;5.644;2022-10-31T07:08:25;10.80;99.90
53294;DHT22;39181;53.440;5.644;2022-10-31T07:10:57;10.80;99.90
53294;DHT22;39181;53.440;5.644;2022-10-31T07:13:23;10.80;99.90
53294;DHT22;39181;53.440;5.644;2022-10-31T07:15:52;10.80;99.90
53294;DHT22;39181;53.440;5.644;2022-10-31T07:18:20;10.90;99.90
53294;DHT22;39181;53.440;5.644;2022-10-31T07:20:47;10.90;99.90
53294;DHT22;39181;53.440;5.644;2022-10-31T07:23:12;11.00;99.90
53294;DHT22;39181;53.440;5.644;2022-10-31T07:25:40;11.00;99.90
53294;DHT22;39181;53.440;5.644;2022-10-31T07:28:06;11.00;99.90
53294;DHT22;39181;53.440;5.644;2022-10-31T07:30:31;11.00;99.90
53294;DHT22;39181;53.440;5.644;2022-10-31T07:32:57;11.00;99.90
53294;DHT22;39181;53.440;5.644;2022-10-31T07:35:24;11.00;99.90
53294;DHT22;39181;53.440;5.644;2022-10-31T07:37:50;11.00;99.90
53294;DHT22;39181;53.440;5.644;2022-10-31T07:40:17;11.00;99.90
53294;DHT22;39181;53.440;5.644;2022-10-31T07:42:45;11.10;99.90
53294;DHT22;39181;53.440;5.644;2022-10-31T07:45:14;11.00;99.90
53294;DHT22;39181;53.440;5.644;2022-10-31T07:47:46;11.10;99.90
53294;DHT22;39181;53.440;5.644;2022-10-31T07:50:17;11.10;99.90
53294;DHT22;39181;53.440;5.644;2022-10-31T07:52:43;11.10;99.90
53294;DHT22;39181;53.440;5.644;2022-10-31T07:55:09;11.10;99.90
53294;DHT22;39181;53.440;5.644;2022-10-31T07:57:35;11.10;99.90
53294;DHT22;39181;53.440;5.644;2022-10-31T08:00:05;11.10;99.90
53294;DHT22;39181;53.440;5.644;2022-10-31T08:02:31;11.20;99.90
53294;DHT22;39181;53.440;5.644;2022-10-31T08:04:57;11.20;99.90
53294;DHT22;39181;53.440;5.644;2022-10-31T08:07:22;11.20;99.90
53294;DHT22;39181;53.440;5.644;2022-10-31T08:09:48;11.20;99.90
53294;DHT22;39181;53.440;5.644;2022-10-31T08:12:13;11.30;99.90
53294;DHT22;39181;53.440;5.644;2022-10-31T08:14:39;11.30;99.90
53294;DHT22;39181;53.440;5.644;2022-10-31T08:17:06;11.40;99.90
53294;DHT22;39181;53.440;5.644;2022-10-31T08:19:31;11.40;99.90
53294;DHT22;39181;53.440;5.644;2022-10-31T08:21:57;11.50;99.90
53294;DHT22;39181;53.440;5.644;2022-10-31T08:24:23;11.60;99.90
53294;DHT22;39181;53.440;5.644;2022-10-31T08:26:49;11.60;99.90
53294;DHT22;39181;53.440;5.644;2022-10-31T08:29:15;11.70;99.90
53294;DHT22;39181;53.440;5.644;2022-10-31T08:31:41;11.80;99.90
53294;DHT22;39181;53.440;5.644;2022-10-31T08:34:07;11.90;99.90
53294;DHT22;39181;53.440;5.644;2022-10-31T08:36:33;12.00;99.90
53294;DHT22;39181;53.440;5.644;2022-10-31T08:38:59;12.10;99.90
53294;DHT22;39181;53.440;5.644;2022-10-31T08:41:25;12.20;99.90
53294;DHT22;39181;53.440;5.644;2022-10-31T08:43:50;12.20;99.90
53294;DHT22;39181;53.440;5.644;2022-10-31T08:46:16;12.30;99.90
53294;DHT22;39181;53.440;5.644;2022-10-31T08:48:42;12.40;99.90
53294;DHT22;39181;53.440;5.644;2022-10-31T08:51:08;12.50;99.90
53294;DHT22;39181;53.440;5.644;2022-10-31T08:53:34;12.60;99.90
53294;DHT22;39181;53.440;5.644;2022-10-31T08:56:00;12.70;99.90
53294;DHT22;39181;53.440;5.644;2022-10-31T08:58:25;12.80;99.90
53294;DHT22;39181;53.440;5.644;2022-10-31T09:00:52;12.90;99.90
53294;DHT22;39181;53.440;5.644;2022-10-31T09:03:22;13.00;99.90
53294;DHT22;39181;53.440;5.644;2022-10-31T09:05:48;13.00;99.90
53294;DHT22;39181;53.440;5.644;2022-10-31T09:08:14;13.10;99.90
53294;DHT22;39181;53.440;5.644;2022-10-31T09:10:40;13.10;99.90
53294;DHT22;39181;53.440;5.644;2022-10-31T09:13:09;13.20;99.90
53294;DHT22;39181;53.440;5.644;2022-10-31T09:15:37;13.30;99.90
53294;DHT22;39181;53.440;5.644;2022-10-31T09:18:06;13.40;99.90
53294;DHT22;39181;53.440;5.644;2022-10-31T09:20:33;13.40;99.90
53294;DHT22;39181;53.440;5.644;2022-10-31T09:23:02;13.60;99.90
53294;DHT22;39181;53.440;5.644;2022-10-31T09:25:28;13.70;99.90
53294;DHT22;39181;53.440;5.644;2022-10-31T09:27:57;13.80;99.90
53294;DHT22;39181;53.440;5.644;2022-10-31T09:30:24;13.90;99.90
53294;DHT22;39181;53.440;5.644;2022-10-31T09:33:01;13.90;99.90
53294;DHT22;39181;53.440;5.644;2022-10-31T09:35:27;14.00;99.90
53294;DHT22;39181;53.440;5.644;2022-10-31T09:38:00;14.10;99.90
53294;DHT22;39181;53.440;5.644;2022-10-31T09:40:55;14.20;99.90
53294;DHT22;39181;53.440;5.644;2022-10-31T09:49:17;14.40;99.90
53294;DHT22;39181;53.440;5.644;2022-10-31T09:51:50;14.50;99.90
53294;DHT22;39181;53.440;5.644;2022-10-31T09:54:32;14.60;99.90
53294;DHT22;39181;53.440;5.644;2022-10-31T09:56:59;14.70;99.90
53294;DHT22;39181;53.440;5.644;2022-10-31T09:59:35;14.70;99.90
53294;DHT22;39181;53.440;5.644;2022-10-31T10:02:16;14.80;99.90
53294;DHT22;39181;53.440;5.644;2022-10-31T10:04:53;14.80;99.90
53294;DHT22;39181;53.440;5.644;2022-10-31T10:08:09;14.90;99.90
53294;DHT22;39181;53.440;5.644;2022-10-31T10:10:18;14.90;99.90
53294;DHT22;39181;53.440;5.644;2022-10-31T10:16:43;15.10;99.90
53294;DHT22;39181;53.440;5.644;2022-10-31T10:22:09;15.10;99.90
53294;DHT22;39181;53.440;5.644;2022-10-31T10:24:54;15.10;99.90
53294;DHT22;39181;53.440;5.644;2022-10-31T10:27:41;15.00;99.90
53294;DHT22;39181;53.440;5.644;2022-10-31T10:30:17;15.10;99.90
53294;DHT22;39181;53.440;5.644;2022-10-31T10:32:47;15.10;99.90
53294;DHT22;39181;53.440;5.644;2022-10-31T10:35:22;15.20;99.90
53294;DHT22;39181;53.440;5.644;2022-10-31T10:38:02;15.30;99.90
53294;DHT22;39181;53.440;5.644;2022-10-31T10:40:29;15.40;99.90
53294;DHT22;39181;53.440;5.644;2022-10-31T10:49:06;15.50;99.90
53294;DHT22;39181;53.440;5.644;2022-10-31T10:54:41;15.80;99.90
53294;DHT22;39181;53.440;5.644;2022-10-31T10:57:20;15.90;99.90
53294;DHT22;39181;53.440;5.644;2022-10-31T10:59:47;16.00;99.90
53294;DHT22;39181;53.440;5.644;2022-10-31T11:02:18;16.00;99.90
53294;DHT22;39181;53.440;5.644;2022-10-31T11:04:47;16.20;99.90
53294;DHT22;39181;53.440;5.644;2022-10-31T11:07:14;16.20;99.90
53294;DHT22;39181;53.440;5.644;2022-10-31T11:09:39;16.20;99.90
53294;DHT22;39181;53.440;5.644;2022-10-31T11:12:14;16.20;99.90
53294;DHT22;39181;53.440;5.644;2022-10-31T11:14:56;16.30;99.90
53294;DHT22;39181;53.440;5.644;2022-10-31T11:17:34;16.30;99.90
53294;DHT22;39181;53.440;5.644;2022-10-31T11:20:23;16.20;99.90
53294;DHT22;39181;53.440;5.644;2022-10-31T11:22:49;16.30;99.90
53294;DHT22;39181;53.440;5.644;2022-10-31T11:25:25;16.20;99.90
53294;DHT22;39181;53.440;5.644;2022-10-31T11:28:05;16.20;99.90
53294;DHT22;39181;53.440;5.644;2022-10-31T11:30:41;16.30;99.90
53294;DHT22;39181;53.440;5.644;2022-10-31T11:33:24;16.30;99.90
53294;DHT22;39181;53.440;5.644;2022-10-31T11:35:52;16.40;99.90
53294;DHT22;39181;53.440;5.644;2022-10-31T11:38:21;16.50;99.90
53294;DHT22;39181;53.440;5.644;2022-10-31T11:40:52;16.50;99.90
53294;DHT22;39181;53.440;5.644;2022-10-31T11:43:19;16.50;99.90
53294;DHT22;39181;53.440;5.644;2022-10-31T11:45:44;16.40;99.90
53294;DHT22;39181;53.440;5.644;2022-10-31T11:48:16;16.40;99.90
53294;DHT22;39181;53.440;5.644;2022-10-31T11:50:48;16.50;99.90
53294;DHT22;39181;53.440;5.644;2022-10-31T11:53:16;16.50;99.90
53294;DHT22;39181;53.440;5.644;2022-10-31T11:55:42;16.40;99.90
53294;DHT22;39181;53.440;5.644;2022-10-31T11:58:24;16.30;99.90
53294;DHT22;39181;53.440;5.644;2022-10-31T12:00:52;16.20;99.90
53294;DHT22;39181;53.440;5.644;2022-10-31T12:06:31;16.00;99.90
53294;DHT22;39181;53.440;5.644;2022-10-31T12:09:00;15.90;99.90
53294;DHT22;39181;53.440;5.644;2022-10-31T12:17:20;15.80;99.90
53294;DHT22;39181;53.440;5.644;2022-10-31T12:22:51;15.80;99.90
53294;DHT22;39181;53.440;5.644;2022-10-31T12:25:44;15.80;99.90
53294;DHT22;39181;53.440;5.644;2022-10-31T12:28:30;15.70;99.90
53294;DHT22;39181;53.440;5.644;2022-10-31T12:31:33;15.70;99.90
53294;DHT22;39181;53.440;5.644;2022-10-31T12:43:28;16.20;99.90
53294;DHT22;39181;53.440;5.644;2022-10-31T12:45:59;16.20;99.90
53294;DHT22;39181;53.440;5.644;2022-10-31T12:57:15;16.10;99.90
53294;DHT22;39181;53.440;5.644;2022-10-31T12:59:46;16.10;99.90
53294;DHT22;39181;53.440;5.644;2022-10-31T13:02:27;16.20;99.90
53294;DHT22;39181;53.440;5.644;2022-10-31T13:04:55;16.20;99.90
53294;DHT22;39181;53.440;5.644;2022-10-31T13:10:17;16.30;99.90
53294;DHT22;39181;53.440;5.644;2022-10-31T13:12:46;16.30;99.90
53294;DHT22;39181;53.440;5.644;2022-10-31T13:15:27;16.30;99.90
53294;DHT22;39181;53.440;5.644;2022-10-31T13:18:00;16.30;99.90
53294;DHT22;39181;53.440;5.644;2022-10-31T13:20:32;16.30;99.90
53294;DHT22;39181;53.440;5.644;2022-10-31T13:23:20;16.40;99.90
53294;DHT22;39181;53.440;5.644;2022-10-31T13:25:54;16.30;99.90
53294;DHT22;39181;53.440;5.644;2022-10-31T13:28:31;16.20;99.90
53294;DHT22;39181;53.440;5.644;2022-10-31T13:30:59;16.20;99.90
53294;DHT22;39181;53.440;5.644;2022-10-31T13:33:35;16.10;99.90
53294;DHT22;39181;53.440;5.644;2022-10-31T13:36:26;16.00;99.90
53294;DHT22;39181;53.440;5.644;2022-10-31T13:42:57;16.00;99.90
53294;DHT22;39181;53.440;5.644;2022-10-31T13:44:54;15.90;99.90
53294;DHT22;39181;53.440;5.644;2022-10-31T13:47:28;15.90;99.90
53294;DHT22;39181;53.440;5.644;2022-10-31T13:50:20;15.80;99.90
53294;DHT22;39181;53.440;5.644;2022-10-31T13:52:47;15.80;99.90
53294;DHT22;39181;53.440;5.644;2022-10-31T13:58:04;15.60;99.90
53294;DHT22;39181;53.440;5.644;2022-10-31T14:00:30;15.60;99.90
53294;DHT22;39181;53.440;5.644;2022-10-31T14:03:00;15.50;99.90
53294;DHT22;39181;53.440;5.644;2022-10-31T14:05:31;15.50;99.90
53294;DHT22;39181;53.440;5.644;2022-10-31T14:08:00;15.50;99.90
53294;DHT22;39181;53.440;5.644;2022-10-31T14:10:38;15.40;99.90
53294;DHT22;39181;53.440;5.644;2022-10-31T14:13:25;15.40;99.90
53294;DHT22;39181;53.440;5.644;2022-10-31T14:15:58;15.30;99.90
53294;DHT22;39181;53.440;5.644;2022-10-31T14:18:34;15.20;99.90
53294;DHT22;39181;53.440;5.644;2022-10-31T14:21:01;15.10;99.90
53294;DHT22;39181;53.440;5.644;2022-10-31T14:23:36;15.10;99.90
53294;DHT22;39181;53.440;5.644;2022-10-31T14:26:31;15.10;99.90
53294;DHT22;39181;53.440;5.644;2022-10-31T14:31:44;15.00;99.90
53294;DHT22;39181;53.440;5.644;2022-10-31T14:34:29;15.00;99.90
53294;DHT22;39181;53.440;5.644;2022-10-31T14:42:37;14.80;99.90
53294;DHT22;39181;53.440;5.644;2022-10-31T14:48:10;14.80;99.90
53294;DHT22;39181;53.440;5.644;2022-10-31T14:50:47;14.70;99.90
53294;DHT22;39181;53.440;5.644;2022-10-31T14:53:27;14.60;99.90
53294;DHT22;39181;53.440;5.644;2022-10-31T14:55:55;14.50;99.90
53294;DHT22;39181;53.440;5.644;2022-10-31T14:58:40;14.40;99.90
53294;DHT22;39181;53.440;5.644;2022-10-31T15:01:15;14.30;99.90
53294;DHT22;39181;53.440;5.644;2022-10-31T15:03:44;14.20;99.90
53294;DHT22;39181;53.440;5.644;2022-10-31T15:06:13;14.10;99.90
53294;DHT22;39181;53.440;5.644;2022-10-31T15:08:50;14.10;99.90
53294;DHT22;39181;53.440;5.644;2022-10-31T15:11:18;14.00;99.90
53294;DHT22;39181;53.440;5.644;2022-10-31T15:13:52;14.00;99.90
53294;DHT22;39181;53.440;5.644;2022-10-31T15:16:33;13.90;99.90
53294;DHT22;39181;53.440;5.644;2022-10-31T15:19:03;13.80;99.90
53294;DHT22;39181;53.440;5.644;2022-10-31T15:21:30;13.80;99.90
53294;DHT22;39181;53.440;5.644;2022-10-31T15:24:01;13.70;99.90
53294;DHT22;39181;53.440;5.644;2022-10-31T15:26:35;13.70;99.90
53294;DHT22;39181;53.440;5.644;2022-10-31T15:29:05;13.70;99.90
53294;DHT22;39181;53.440;5.644;2022-10-31T15:31:32;13.60;99.90
53294;DHT22;39181;53.440;5.644;2022-10-31T15:34:16;13.60;99.90
53294;DHT22;39181;53.440;5.644;2022-10-31T15:36:48;13.60;99.90
53294;DHT22;39181;53.440;5.644;2022-10-31T15:39:14;13.50;99.90
53294;DHT22;39181;53.440;5.644;2022-10-31T15:41:54;13.50;99.90
53294;DHT22;39181;53.440;5.644;2022-10-31T15:44:28;13.40;99.90
53294;DHT22;39181;53.440;5.644;2022-10-31T15:46:59;13.50;99.90
53294;DHT22;39181;53.440;5.644;2022-10-31T15:51:50;13.40;99.90
53294;DHT22;39181;53.440;5.644;2022-10-31T15:54:16;13.40;99.90
53294;DHT22;39181;53.440;5.644;2022-10-31T15:56:43;13.40;99.90
53294;DHT22;39181;53.440;5.644;2022-10-31T15:59:19;13.40;99.90
53294;DHT22;39181;53.440;5.644;2022-10-31T16:01:59;13.40;99.90
53294;DHT22;39181;53.440;5.644;2022-10-31T16:04:25;13.40;99.90
53294;DHT22;39181;53.440;5.644;2022-10-31T16:07:02;13.40;99.90
53294;DHT22;39181;53.440;5.644;2022-10-31T16:09:37;13.40;99.90
53294;DHT22;39181;53.440;5.644;2022-10-31T16:12:03;13.40;99.90
53294;DHT22;39181;53.440;5.644;2022-10-31T16:14:31;13.40;99.90
53294;DHT22;39181;53.440;5.644;2022-10-31T16:16:58;13.40;99.90
53294;DHT22;39181;53.440;5.644;2022-10-31T16:19:28;13.50;99.90
53294;DHT22;39181;53.440;5.644;2022-10-31T16:22:01;13.50;99.90
53294;DHT22;39181;53.440;5.644;2022-10-31T16:24:32;13.50;99.90
53294;DHT22;39181;53.440;5.644;2022-10-31T16:27:04;13.50;99.90
53294;DHT22;39181;53.440;5.644;2022-10-31T16:29:38;13.50;99.90
53294;DHT22;39181;53.440;5.644;2022-10-31T16:32:04;13.50;99.90
53294;DHT22;39181;53.440;5.644;2022-10-31T16:34:30;13.50;99.90
53294;DHT22;39181;53.440;5.644;2022-10-31T16:36:55;13.50;99.90
53294;DHT22;39181;53.440;5.644;2022-10-31T16:39:21;13.60;99.90
53294;DHT22;39181;53.440;5.644;2022-10-31T16:41:50;13.60;99.90
53294;DHT22;39181;53.440;5.644;2022-10-31T16:44:24;13.60;99.90
53294;DHT22;39181;53.440;5.644;2022-10-31T16:47:12;13.60;99.90
53294;DHT22;39181;53.440;5.644;2022-10-31T16:49:38;13.60;99.90
53294;DHT22;39181;53.440;5.644;2022-10-31T16:52:04;13.60;99.90
53294;DHT22;39181;53.440;5.644;2022-10-31T16:54:30;13.60;99.90
53294;DHT22;39181;53.440;5.644;2022-10-31T16:56:57;13.60;99.90
53294;DHT22;39181;53.440;5.644;2022-10-31T16:59:22;13.60;99.90
53294;DHT22;39181;53.440;5.644;2022-10-31T17:01:48;13.60;99.90
53294;DHT22;39181;53.440;5.644;2022-10-31T17:04:14;13.60;99.90
53294;DHT22;39181;53.440;5.644;2022-10-31T17:06:41;13.50;99.90
53294;DHT22;39181;53.440;5.644;2022-10-31T17:09:07;13.60;99.90
53294;DHT22;39181;53.440;5.644;2022-10-31T17:11:33;13.60;99.90
53294;DHT22;39181;53.440;5.644;2022-10-31T17:13:59;13.60;99.90
53294;DHT22;39181;53.440;5.644;2022-10-31T17:16:25;13.60;99.90
53294;DHT22;39181;53.440;5.644;2022-10-31T17:18:51;13.50;99.90
53294;DHT22;39181;53.440;5.644;2022-10-31T17:21:21;13.60;99.90
53294;DHT22;39181;53.440;5.644;2022-10-31T17:23:48;13.50;99.90
53294;DHT22;39181;53.440;5.644;2022-10-31T17:26:14;13.50;99.90
53294;DHT22;39181;53.440;5.644;2022-10-31T17:28:40;13.50;99.90
53294;DHT22;39181;53.440;5.644;2022-10-31T17:31:18;13.60;99.90
53294;DHT22;39181;53.440;5.644;2022-10-31T17:33:44;13.50;99.90